createdAt,value
2019-05-11T07:16:30.286Z,61.9000
2019-05-11T07:16:58.076Z,56.6000
2019-05-11T07:17:06.577Z,56.3000
2019-05-11T07:17:15.074Z,56.3000
2019-05-11T07:17:23.578Z,56.2000
2019-05-11T07:17:32.148Z,56.1000
2019-05-11T07:17:40.900Z,56.0000
2019-05-11T07:17:49.352Z,68.0000
2019-05-11T07:17:57.852Z,64.4000
2019-05-11T07:18:07.394Z,64.1000
2019-05-11T07:18:15.900Z,60.3000
2019-05-11T07:18:24.396Z,65.9000
2019-05-11T07:18:32.903Z,59.4000
2019-05-11T07:18:41.407Z,58.6000
2019-05-11T07:18:49.925Z,57.5000
2019-05-11T07:18:58.424Z,68.6000
2019-05-11T07:19:06.869Z,99.9000
2019-05-11T07:19:15.374Z,85.7000
2019-05-11T07:19:23.864Z,87.0000
2019-05-11T07:19:32.354Z,76.6000
2019-05-11T07:19:40.833Z,69.6000
2019-05-11T07:19:49.340Z,63.7000
2019-05-11T07:19:57.844Z,61.3000
2019-05-11T07:20:25.800Z,59.1000
2019-05-11T07:20:49.116Z,55.7000
2019-05-11T07:20:50.730Z,55.1000
2019-05-11T07:20:59.512Z,54.7000
2019-05-11T07:21:08.015Z,54.3000
2019-05-11T07:21:16.523Z,54.0000
2019-05-11T07:21:25.019Z,53.9000
2019-05-11T07:21:33.551Z,53.8000
2019-05-11T07:21:42.066Z,58.4000
2019-05-11T07:21:50.570Z,67.9000
2019-05-11T07:21:59.064Z,60.0000
2019-05-11T07:22:07.562Z,56.8000
2019-05-11T07:22:16.064Z,55.1000
2019-05-11T07:22:24.551Z,54.1000
2019-05-11T07:22:33.114Z,53.4000
2019-05-11T07:22:41.644Z,53.6000
2019-05-11T07:22:50.146Z,53.4000
2019-05-11T07:22:58.638Z,53.4000
2019-05-11T07:23:07.129Z,53.2000
2019-05-11T07:23:15.629Z,53.0000
2019-05-11T07:23:24.149Z,52.8000
2019-05-11T07:23:32.649Z,52.9000
2019-05-11T07:23:41.215Z,52.8000
2019-05-11T07:23:49.766Z,52.8000
2019-05-11T07:23:58.281Z,52.9000
2019-05-11T07:24:06.799Z,52.9000
2019-05-11T07:24:15.296Z,53.0000
2019-05-11T07:24:23.803Z,53.2000
2019-05-11T07:24:33.608Z,53.1000
2019-05-11T07:24:42.174Z,53.6000
2019-05-11T07:24:50.689Z,53.6000
2019-05-11T07:24:59.186Z,53.6000
2019-05-11T07:25:16.140Z,53.7000
2019-05-11T07:25:24.644Z,53.7000
2019-05-11T07:25:33.142Z,53.7000
2019-05-11T07:25:41.639Z,53.8000
2019-05-11T07:25:50.135Z,53.8000
2019-05-11T07:26:00.245Z,54.1000
2019-05-11T07:26:08.937Z,54.3000
2019-05-11T07:26:25.907Z,54.2000
2019-05-11T07:26:34.406Z,54.5000
2019-05-11T07:26:42.901Z,54.4000
2019-05-11T07:26:51.402Z,54.3000
2019-05-11T07:26:59.951Z,54.4000
2019-05-11T07:27:08.447Z,54.5000
2019-05-11T07:27:25.408Z,54.5000
2019-05-11T07:27:33.911Z,54.4000
2019-05-11T07:27:42.399Z,54.5000
2019-05-11T07:27:50.899Z,54.5000
2019-05-11T07:27:59.380Z,54.5000
2019-05-11T07:28:16.357Z,54.6000
2019-05-11T07:28:24.846Z,54.6000
2019-05-11T07:28:33.351Z,54.7000
2019-05-11T07:28:41.850Z,54.8000
2019-05-11T07:28:50.349Z,54.8000
2019-05-11T07:28:58.847Z,54.9000
2019-05-11T07:29:15.863Z,54.9000
2019-05-11T07:29:24.373Z,55.0000
2019-05-11T07:29:32.873Z,55.1000
2019-05-11T07:29:41.369Z,55.2000
2019-05-11T07:29:49.870Z,55.1000
2019-05-11T07:29:58.367Z,55.2000
2019-05-11T07:30:15.339Z,55.3000
2019-05-11T07:30:23.864Z,55.4000
2019-05-11T07:30:32.360Z,55.4000
2019-05-11T07:30:40.866Z,55.5000
2019-05-11T07:30:49.356Z,55.5000
2019-05-11T07:31:06.324Z,55.5000
2019-05-11T07:31:14.822Z,55.5000
2019-05-11T07:31:23.318Z,55.5000
2019-05-11T07:31:31.829Z,55.5000
2019-05-11T07:31:40.359Z,55.5000
2019-05-11T07:31:48.868Z,55.5000
2019-05-11T07:32:16.476Z,55.5000
2019-05-11T07:32:25.600Z,55.5000
2019-05-11T07:32:34.856Z,55.6000
2019-05-11T07:32:43.365Z,55.6000
2019-05-11T07:32:51.852Z,55.6000
2019-05-11T07:33:01.077Z,55.7000
2019-05-11T07:33:09.715Z,55.6000
2019-05-11T07:33:18.388Z,55.6000
2019-05-11T07:33:28.700Z,55.7000
2019-05-11T07:33:37.997Z,55.7000
2019-05-11T07:33:48.617Z,55.8000
2019-05-11T07:33:58.731Z,55.8000
2019-05-11T07:34:08.117Z,55.8000
2019-05-11T07:34:18.505Z,55.9000
2019-05-11T07:34:27.782Z,55.8000
2019-05-11T07:34:38.360Z,55.9000
2019-05-11T07:34:48.711Z,55.9000
2019-05-11T07:34:57.787Z,55.9000
2019-05-11T07:35:08.445Z,55.9000
2019-05-11T07:35:18.824Z,55.9000
2019-05-11T07:35:27.989Z,56.0000
2019-05-11T07:35:38.499Z,56.1000
2019-05-11T07:35:47.870Z,56.0000
2019-05-11T07:35:58.317Z,56.0000
2019-05-11T07:36:08.444Z,56.0000
2019-05-11T07:36:17.745Z,56.0000
2019-05-11T07:36:28.218Z,55.9000
2019-05-11T07:36:38.782Z,55.9000
2019-05-11T07:36:47.725Z,55.9000
2019-05-11T07:36:57.657Z,56.0000
2019-05-11T07:37:08.205Z,56.0000
2019-05-11T07:37:18.537Z,55.9000
2019-05-11T07:37:28.021Z,55.8000
2019-05-11T07:37:38.565Z,55.9000
2019-05-11T07:37:47.998Z,55.9000
2019-05-11T07:37:58.164Z,55.9000
2019-05-11T07:38:08.304Z,55.9000
2019-05-11T07:38:18.339Z,55.9000
2019-05-11T07:38:27.835Z,55.9000
2019-05-11T07:38:38.160Z,55.9000
2019-05-11T07:38:48.739Z,55.9000
2019-05-11T07:38:58.012Z,55.9000
2019-05-11T07:39:08.319Z,55.9000
2019-05-11T07:39:18.689Z,55.9000
2019-05-11T07:39:27.947Z,55.9000
2019-05-11T07:39:38.354Z,55.9000
2019-05-11T07:39:48.765Z,55.9000
2019-05-11T07:39:58.027Z,55.9000
2019-05-11T07:40:08.215Z,55.8000
2019-05-11T07:40:18.766Z,55.9000
2019-05-11T07:40:27.986Z,55.9000
2019-05-11T07:40:38.476Z,56.0000
2019-05-11T07:40:47.669Z,56.0000
2019-05-11T07:40:58.244Z,56.0000
2019-05-11T07:41:08.777Z,56.0000
2019-05-11T07:41:17.686Z,56.0000
2019-05-11T07:41:28.105Z,56.0000
2019-05-11T07:41:38.677Z,56.0000
2019-05-11T07:41:47.964Z,55.9000
2019-05-11T07:41:58.421Z,55.9000
2019-05-11T07:42:07.757Z,55.9000
2019-05-11T07:42:18.050Z,56.0000
2019-05-11T07:42:28.577Z,56.0000
2019-05-11T07:42:37.953Z,55.9000
2019-05-11T07:42:48.568Z,55.9000
2019-05-11T07:42:58.943Z,55.9000
2019-05-11T07:43:09.894Z,55.9000
2019-05-11T07:43:18.977Z,55.9000
2019-05-11T07:43:28.746Z,55.9000
2019-05-11T07:43:38.014Z,55.9000
2019-05-11T07:43:48.442Z,55.9000
2019-05-11T07:43:58.998Z,55.9000
2019-05-11T07:44:09.954Z,56.0000
2019-05-11T07:44:19.174Z,56.1000
2019-05-11T07:44:37.835Z,56.0000
2019-05-11T07:44:48.203Z,56.0000
2019-05-11T07:44:58.261Z,55.9000
2019-05-11T07:45:08.850Z,55.9000
2019-05-11T07:45:18.141Z,56.0000
2019-05-11T07:45:28.296Z,55.9000
2019-05-11T07:45:38.681Z,55.9000
2019-05-11T07:45:47.987Z,55.8000
2019-05-11T07:45:58.438Z,55.9000
2019-05-11T07:46:07.817Z,55.9000
2019-05-11T07:46:18.178Z,55.9000
2019-05-11T07:46:28.773Z,55.9000
2019-05-11T07:46:37.785Z,55.8000
2019-05-11T07:46:48.293Z,55.9000
2019-05-11T07:46:58.691Z,55.8000
2019-05-11T07:47:07.964Z,55.8000
2019-05-11T07:47:18.713Z,55.8000
2019-05-11T07:47:27.894Z,56.0000
2019-05-11T07:47:37.929Z,56.0000
2019-05-11T07:47:48.554Z,55.9000
2019-05-11T07:47:59.012Z,55.9000
2019-05-11T07:48:08.089Z,55.7000
2019-05-11T07:48:18.684Z,55.7000
2019-05-11T07:48:27.839Z,55.7000
2019-05-11T07:48:38.599Z,55.7000
2019-05-11T07:48:47.913Z,55.7000
2019-05-11T07:48:58.434Z,55.7000
2019-05-11T07:49:08.735Z,55.7000
2019-05-11T07:49:17.952Z,55.6000
2019-05-11T07:49:29.001Z,57.8000
2019-05-11T07:49:39.625Z,56.9000
2019-05-11T07:49:50.077Z,56.6000
2019-05-11T07:49:59.530Z,56.2000
2019-05-11T07:50:08.333Z,56.0000
2019-05-11T07:50:18.121Z,57.5000
2019-05-11T07:50:28.382Z,56.6000
2019-05-11T07:50:38.716Z,56.0000
2019-05-11T07:50:47.921Z,62.4000
2019-05-11T07:50:58.465Z,82.6000
2019-05-11T07:51:30.415Z,68.6000
2019-05-11T07:51:39.104Z,57.4000
2019-05-11T07:51:48.114Z,56.8000
2019-05-11T07:51:58.658Z,56.1000
2019-05-11T07:52:07.837Z,60.9000
2019-05-11T07:52:18.162Z,57.1000
2019-05-11T07:52:28.781Z,56.2000
2019-05-11T07:52:37.954Z,55.6000
2019-05-11T07:52:48.314Z,55.1000
2019-05-11T07:52:58.898Z,54.8000
2019-05-11T07:53:08.214Z,55.5000
2019-05-11T07:53:18.610Z,57.5000
2019-05-11T07:53:27.896Z,57.8000
2019-05-11T07:53:38.088Z,56.2000
2019-05-11T07:53:48.684Z,55.5000
2019-05-11T07:53:57.805Z,54.9000
2019-05-11T07:54:08.443Z,54.7000
2019-05-11T07:54:18.728Z,54.5000
2019-05-11T07:54:28.078Z,54.2000
2019-05-11T07:54:38.549Z,54.2000
2019-05-11T07:54:52.036Z,54.2000
2019-05-11T07:55:01.485Z,54.0000
2019-05-11T07:55:09.928Z,53.9000
2019-05-11T07:55:18.960Z,53.8000
2019-05-11T07:55:28.322Z,54.5000
2019-05-11T07:55:38.496Z,54.0000
2019-05-11T07:55:48.455Z,55.0000
2019-05-11T07:55:57.770Z,54.5000
2019-05-11T07:56:08.265Z,54.2000
2019-05-11T07:56:18.752Z,54.4000
2019-05-11T07:56:28.482Z,54.3000
2019-05-11T07:56:39.099Z,75.9000
2019-05-11T08:36:51.826Z,56.6000
2019-05-11T08:37:00.241Z,58.0000
2019-05-11T08:37:08.920Z,58.0000
2019-05-11T08:37:18.922Z,58.0000
2019-05-11T08:37:28.397Z,58.0000
2019-05-11T08:37:38.754Z,57.9000
2019-05-11T08:37:47.986Z,58.0000
2019-05-11T08:37:58.155Z,58.0000
2019-05-11T08:38:08.821Z,58.0000
2019-05-11T08:38:18.045Z,58.0000
2019-05-11T08:38:28.566Z,58.1000
2019-05-11T08:38:37.820Z,58.0000
2019-05-11T08:38:48.254Z,58.0000
2019-05-11T08:38:58.573Z,58.1000
2019-05-11T08:39:07.872Z,58.1000
2019-05-11T08:39:18.194Z,58.1000
2019-05-11T08:39:28.821Z,58.1000
2019-05-11T08:39:37.940Z,58.1000
2019-05-11T08:39:48.192Z,58.1000
2019-05-11T08:39:58.516Z,58.1000
2019-05-11T08:40:07.832Z,58.1000
2019-05-11T08:40:18.275Z,58.1000
2019-05-11T08:40:28.920Z,58.0000
2019-05-11T08:40:38.003Z,58.0000
2019-05-11T08:40:48.444Z,58.0000
2019-05-11T08:40:58.993Z,57.9000
2019-05-11T08:41:08.180Z,57.9000
2019-05-11T08:41:18.417Z,57.9000
2019-05-11T08:41:27.942Z,57.9000
2019-05-11T08:41:38.393Z,57.9000
2019-05-11T08:41:48.765Z,57.8000
2019-05-11T08:41:58.946Z,57.8000
2019-05-11T08:42:08.774Z,57.8000
2019-05-11T08:42:17.911Z,57.8000
2019-05-11T08:42:28.648Z,57.7000
2019-05-11T08:42:37.977Z,57.7000
2019-05-11T08:42:48.188Z,57.7000
2019-05-11T08:42:58.298Z,57.7000
2019-05-11T08:43:08.815Z,57.7000
2019-05-11T08:43:17.945Z,57.6000
2019-05-11T08:43:28.567Z,57.6000
2019-05-11T08:43:38.855Z,57.6000
2019-05-11T08:43:48.042Z,57.6000
2019-05-11T08:43:58.741Z,57.5000
2019-05-11T08:44:08.945Z,57.5000
2019-05-11T08:44:18.163Z,57.5000
2019-05-11T08:44:28.771Z,57.5000
2019-05-11T08:44:38.015Z,57.4000
2019-05-11T08:44:48.311Z,57.4000
2019-05-11T08:45:14.710Z,57.3000
2019-05-11T08:45:20.414Z,57.3000
2019-05-11T08:45:27.843Z,57.3000
2019-05-11T08:45:39.093Z,57.2000
2019-05-11T08:45:48.540Z,57.2000
2019-05-11T08:45:57.864Z,57.2000
2019-05-11T08:46:07.943Z,57.1000
2019-05-11T08:46:18.521Z,57.1000
2019-05-11T08:46:27.916Z,57.1000
2019-05-11T08:46:38.571Z,57.1000
2019-05-11T08:46:47.900Z,57.1000
2019-05-11T08:46:58.230Z,57.0000
2019-05-11T08:47:08.492Z,57.0000
2019-05-11T08:47:17.791Z,57.0000
2019-05-11T08:47:28.375Z,57.0000
2019-05-11T08:47:37.748Z,57.0000
2019-05-11T08:47:48.416Z,57.0000
2019-05-11T08:47:57.936Z,56.9000
2019-05-11T08:48:08.134Z,56.9000
2019-05-11T08:48:18.701Z,56.9000
2019-05-11T08:48:28.299Z,56.9000
2019-05-11T08:48:38.804Z,56.9000
2019-05-11T08:48:47.960Z,56.9000
2019-05-11T08:48:56.447Z,56.9000
2019-05-11T08:49:04.859Z,56.8000
2019-05-11T08:49:15.628Z,56.8000
2019-05-11T08:49:25.099Z,56.8000
2019-05-11T08:49:33.567Z,56.7000
2019-05-11T08:49:41.982Z,56.7000
2019-05-11T08:49:50.398Z,56.7000
2019-05-11T08:49:59.106Z,56.7000
2019-05-11T08:50:08.151Z,56.7000
2019-05-11T08:50:18.768Z,56.7000
2019-05-11T08:50:28.054Z,56.7000
2019-05-11T08:50:38.272Z,56.7000
2019-05-11T08:50:48.850Z,56.7000
2019-05-11T08:50:58.223Z,56.6000
2019-05-11T08:51:08.421Z,56.6000
2019-05-11T08:51:18.659Z,56.6000
2019-05-11T08:51:27.942Z,56.6000
2019-05-11T08:51:38.632Z,56.6000
2019-05-11T08:51:47.880Z,56.5000
2019-05-11T08:51:57.859Z,56.5000
2019-05-11T08:52:08.175Z,56.5000
2019-05-11T08:52:18.686Z,56.5000
2019-05-11T08:52:28.032Z,56.5000
2019-05-11T08:52:38.683Z,56.5000
2019-05-11T08:52:47.855Z,56.5000
2019-05-11T08:52:58.091Z,56.5000
2019-05-11T08:53:08.586Z,56.4000
2019-05-11T08:53:17.829Z,56.4000
2019-05-11T08:53:28.447Z,56.4000
2019-05-11T08:53:38.738Z,56.4000
2019-05-11T08:53:48.049Z,56.4000
2019-05-11T08:53:58.363Z,56.4000
2019-05-11T08:54:08.963Z,56.4000
2019-05-11T08:54:18.270Z,56.4000
2019-05-11T08:54:28.902Z,56.3000
2019-05-11T08:54:38.214Z,56.4000
2019-05-11T08:54:48.655Z,56.3000
2019-05-11T08:54:57.878Z,56.3000
2019-05-11T08:55:08.359Z,56.3000
2019-05-11T08:55:19.046Z,56.3000
2019-05-11T08:55:28.988Z,56.3000
2019-05-11T08:55:38.329Z,56.3000
2019-05-11T08:55:48.522Z,56.3000
2019-05-11T08:55:58.860Z,56.2000
2019-05-11T08:56:10.068Z,56.2000
2019-05-11T08:56:21.771Z,56.2000
2019-05-11T08:56:30.193Z,56.3000
2019-05-11T08:56:38.641Z,56.2000
2019-05-11T08:56:48.644Z,56.2000
2019-05-11T08:56:58.774Z,56.3000
2019-05-11T08:57:08.182Z,56.2000
2019-05-11T08:57:17.969Z,56.2000
2019-05-11T08:57:28.586Z,56.3000
2019-05-11T08:57:38.755Z,56.3000
2019-05-11T08:57:48.068Z,56.3000
2019-05-11T08:57:58.530Z,56.3000
2019-05-11T08:58:07.882Z,56.3000
2019-05-11T08:58:19.328Z,56.4000
2019-05-11T08:58:28.100Z,56.3000
2019-05-11T08:58:37.981Z,56.4000
2019-05-11T08:58:49.023Z,56.4000
2019-05-11T08:58:58.899Z,56.5000
2019-05-11T08:59:08.035Z,56.5000
2019-05-11T08:59:18.655Z,56.5000
2019-05-11T08:59:27.939Z,56.6000
2019-05-11T08:59:38.095Z,56.6000
2019-05-11T08:59:48.557Z,56.6000
2019-05-11T08:59:57.914Z,56.7000
2019-05-11T09:00:08.539Z,56.7000
2019-05-11T09:00:17.967Z,56.7000
2019-05-11T09:00:28.385Z,56.7000
2019-05-11T09:00:38.898Z,56.7000
2019-05-11T09:00:47.862Z,56.7000
2019-05-11T09:00:58.327Z,56.8000
2019-05-11T09:01:08.801Z,56.8000
2019-05-11T09:01:18.334Z,56.8000
2019-05-11T09:01:28.672Z,56.8000
2019-05-11T09:01:39.330Z,56.9000
2019-05-11T09:01:48.506Z,56.9000
2019-05-11T09:01:58.760Z,56.9000
2019-05-11T09:02:08.137Z,56.9000
2019-05-11T09:02:18.607Z,56.9000
2019-05-11T09:02:27.773Z,57.0000
2019-05-11T09:02:38.352Z,57.0000
2019-05-11T09:02:50.431Z,57.0000
2019-05-11T09:02:59.416Z,57.0000
2019-05-11T09:03:08.497Z,57.0000
2019-05-11T09:03:17.844Z,57.1000
2019-05-11T09:03:28.467Z,57.1000
2019-05-11T09:03:38.777Z,57.1000
2019-05-11T09:03:47.855Z,57.1000
2019-05-11T09:03:58.323Z,57.1000
2019-05-11T09:04:08.929Z,57.1000
2019-05-11T09:04:18.349Z,57.1000
2019-05-11T09:04:28.790Z,57.1000
2019-05-11T09:04:41.684Z,57.1000
2019-05-11T09:04:50.387Z,57.1000
2019-05-11T09:04:59.086Z,57.1000
2019-05-11T09:05:08.310Z,57.1000
2019-05-11T09:05:18.695Z,57.2000
2019-05-11T09:05:28.025Z,57.2000
2019-05-11T09:05:38.425Z,57.2000
2019-05-11T09:05:48.588Z,57.2000
2019-05-11T09:05:57.922Z,57.3000
2019-05-11T09:06:08.376Z,57.2000
2019-05-11T09:06:17.878Z,57.3000
2019-05-11T09:06:28.365Z,57.3000
2019-05-11T09:06:37.664Z,57.3000
2019-05-11T09:06:47.979Z,57.3000
2019-05-11T09:06:58.458Z,57.3000
2019-05-11T09:07:07.853Z,57.3000
2019-05-11T09:07:18.457Z,57.3000
2019-05-11T09:07:27.767Z,57.4000
2019-05-11T09:07:38.471Z,57.3000
2019-05-11T09:07:48.423Z,57.3000
2019-05-11T09:07:57.780Z,57.3000
2019-05-11T09:08:08.195Z,57.3000
2019-05-11T09:08:18.852Z,57.3000
2019-05-11T09:08:28.312Z,57.3000
2019-05-11T09:08:38.820Z,57.4000
2019-05-11T09:08:49.297Z,57.4000
2019-05-11T09:08:58.443Z,57.4000
2019-05-11T09:09:08.890Z,57.4000
2019-05-11T09:09:18.589Z,57.4000
2019-05-11T09:09:28.664Z,57.4000
2019-05-11T09:09:38.003Z,57.4000
2019-05-11T09:09:48.371Z,57.4000
2019-05-11T09:09:58.603Z,57.4000
2019-05-11T09:10:08.182Z,57.5000
2019-05-11T09:10:18.523Z,57.5000
2019-05-11T09:10:28.051Z,57.5000
2019-05-11T09:10:39.279Z,57.5000
2019-05-11T09:10:49.005Z,57.5000
2019-05-11T09:10:58.326Z,57.5000
2019-05-11T09:11:08.420Z,57.5000
2019-05-11T09:11:19.072Z,57.5000
2019-05-11T09:11:28.407Z,57.5000
2019-05-11T09:11:38.919Z,57.5000
2019-05-11T09:11:48.098Z,57.5000
2019-05-11T09:11:58.894Z,57.5000
2019-05-11T09:12:07.918Z,57.5000
2019-05-11T09:12:18.296Z,57.5000
2019-05-11T09:12:28.800Z,57.6000
2019-05-11T09:12:38.250Z,57.6000
2019-05-11T09:12:48.775Z,57.6000
2019-05-11T09:12:59.134Z,57.6000
2019-05-11T09:13:08.098Z,57.6000
2019-05-11T09:13:18.560Z,57.6000
2019-05-11T09:13:27.942Z,57.6000
2019-05-11T09:13:36.521Z,57.6000
2019-05-11T09:13:44.919Z,57.6000
2019-05-11T09:13:53.331Z,57.6000
2019-05-11T09:14:01.727Z,57.6000
2019-05-11T09:14:10.144Z,57.7000
2019-05-11T09:14:18.964Z,57.6000
2019-05-11T09:14:28.335Z,57.7000
2019-05-11T09:14:38.705Z,57.7000
2019-05-11T09:14:47.848Z,57.7000
2019-05-11T09:14:58.115Z,57.7000
2019-05-11T09:15:08.713Z,57.7000
2019-05-11T09:15:32.343Z,57.7000
2019-05-11T09:15:36.957Z,57.7000
2019-05-11T09:15:48.241Z,57.7000
2019-05-11T09:15:58.813Z,57.7000
2019-05-11T09:16:08.003Z,57.7000
2019-05-11T09:16:18.712Z,57.7000
2019-05-11T09:16:29.101Z,57.7000
2019-05-11T09:16:38.272Z,57.7000
2019-05-11T09:16:48.870Z,57.7000
2019-05-11T09:16:57.861Z,57.7000
2019-05-11T09:17:07.851Z,57.7000
2019-05-11T09:17:18.212Z,57.7000
2019-05-11T09:17:28.913Z,57.7000
2019-05-11T09:17:38.169Z,57.7000
2019-05-11T09:17:48.763Z,57.7000
2019-05-11T09:17:57.833Z,57.7000
2019-05-11T09:18:08.444Z,57.7000
2019-05-11T09:18:18.715Z,57.7000
2019-05-11T09:18:27.984Z,57.7000
2019-05-11T09:18:38.615Z,57.7000
2019-05-11T09:18:47.990Z,57.7000
2019-05-11T09:18:58.157Z,57.7000
2019-05-11T09:19:08.845Z,57.7000
2019-05-11T09:19:17.898Z,57.7000
2019-05-11T09:19:28.418Z,57.7000
2019-05-11T09:19:38.818Z,57.7000
2019-05-11T09:19:48.103Z,57.7000
2019-05-11T09:19:58.177Z,57.7000
2019-05-11T09:20:08.764Z,57.7000
2019-05-11T09:20:17.967Z,57.7000
2019-05-11T09:20:28.539Z,57.7000
2019-05-11T09:20:37.792Z,57.6000
2019-05-11T09:20:48.551Z,57.6000
2019-05-11T09:20:57.747Z,57.6000
2019-05-11T09:21:08.381Z,57.6000
2019-05-11T09:21:19.055Z,57.7000
2019-05-11T09:21:28.247Z,57.7000
2019-05-11T09:21:38.252Z,57.7000
2019-05-11T09:21:48.186Z,57.7000
2019-05-11T09:21:58.822Z,57.7000
2019-05-11T09:22:08.239Z,57.7000
2019-05-11T09:22:18.676Z,57.8000
2019-05-11T09:22:28.404Z,57.9000
2019-05-11T09:22:38.101Z,58.0000
2019-05-11T09:22:48.489Z,58.1000
2019-05-11T09:22:58.934Z,58.3000
2019-05-11T09:23:08.204Z,58.4000
2019-05-11T09:23:30.928Z,58.6000
2019-05-11T09:23:37.297Z,58.7000
2019-05-11T09:23:45.502Z,59.0000
2019-05-11T09:23:53.914Z,59.2000
2019-05-11T09:24:02.321Z,59.4000
2019-05-11T09:24:10.763Z,59.5000
2019-05-11T09:24:19.170Z,59.6000
2019-05-11T09:24:28.208Z,59.7000
2019-05-11T09:24:38.682Z,59.9000
2019-05-11T09:24:47.722Z,60.0000
2019-05-11T09:24:58.287Z,60.2000
2019-05-11T09:25:08.821Z,60.4000
2019-05-11T09:25:18.348Z,60.6000
2019-05-11T09:25:27.768Z,60.7000
2019-05-11T09:25:38.325Z,60.8000
2019-05-11T09:25:47.705Z,61.0000
2019-05-11T09:25:58.294Z,61.1000
2019-05-11T09:26:08.725Z,61.2000
2019-05-11T09:26:18.325Z,61.3000
2019-05-11T09:26:28.591Z,61.5000
2019-05-11T09:26:38.823Z,61.5000
2019-05-11T09:26:48.008Z,61.5000
2019-05-11T09:26:58.578Z,61.6000
2019-05-11T09:27:07.793Z,61.6000
2019-05-11T09:27:18.416Z,61.7000
2019-05-11T09:27:28.600Z,61.7000
2019-05-11T09:27:37.628Z,61.6000
2019-05-11T09:27:48.182Z,61.7000
2019-05-11T09:27:58.736Z,61.6000
2019-05-11T09:28:08.523Z,61.6000
2019-05-11T09:28:18.074Z,61.5000
2019-05-11T09:28:29.271Z,61.5000
2019-05-11T09:28:38.547Z,61.5000
2019-05-11T09:28:47.657Z,61.4000
2019-05-11T09:28:58.149Z,61.4000
2019-05-11T09:29:08.749Z,61.3000
2019-05-11T09:29:18.052Z,61.2000
2019-05-11T09:29:28.199Z,61.2000
2019-05-11T09:29:38.722Z,61.2000
2019-05-11T09:29:47.964Z,61.1000
2019-05-11T09:29:58.726Z,61.0000
2019-05-11T09:30:08.270Z,60.9000
2019-05-11T09:30:18.436Z,60.9000
2019-05-11T09:30:28.819Z,60.8000
2019-05-11T09:30:37.822Z,60.8000
2019-05-11T09:30:48.184Z,60.8000
2019-05-11T09:30:57.772Z,60.6000
2019-05-11T09:31:08.446Z,60.6000
2019-05-11T09:31:18.796Z,60.6000
2019-05-11T09:31:27.961Z,60.5000
2019-05-11T09:31:38.153Z,60.5000
2019-05-11T09:31:48.722Z,60.4000
2019-05-11T09:31:58.312Z,60.4000
2019-05-11T09:32:08.798Z,60.3000
2019-05-11T09:32:17.977Z,60.3000
2019-05-11T09:32:28.503Z,60.2000
2019-05-11T09:32:38.481Z,60.2000
2019-05-11T09:32:47.778Z,60.1000
2019-05-11T09:32:58.138Z,60.2000
2019-05-11T09:33:08.610Z,60.1000
2019-05-11T09:33:20.499Z,60.0000
2019-05-11T09:33:29.130Z,60.0000
2019-05-11T09:33:38.570Z,60.0000
2019-05-11T09:33:47.984Z,60.0000
2019-05-11T09:33:58.468Z,59.9000
2019-05-11T09:34:09.006Z,59.9000
2019-05-11T09:34:18.221Z,59.9000
2019-05-11T09:34:28.778Z,59.9000
2019-05-11T09:34:37.816Z,59.9000
2019-05-11T09:34:48.527Z,59.8000
2019-05-11T09:34:57.985Z,59.8000
2019-05-11T09:35:08.354Z,59.8000
2019-05-11T09:35:18.958Z,59.8000
2019-05-11T09:35:29.179Z,59.8000
2019-05-11T09:35:47.616Z,59.7000
2019-05-11T09:35:53.517Z,59.7000
2019-05-11T09:36:02.085Z,59.7000
2019-05-11T09:36:10.551Z,59.7000
2019-05-11T09:36:18.997Z,59.7000
2019-05-11T09:36:28.561Z,59.7000
2019-05-11T09:36:38.900Z,59.7000
2019-05-11T09:36:47.983Z,59.6000
2019-05-11T09:36:58.676Z,59.6000
2019-05-11T09:37:07.957Z,59.6000
2019-05-11T09:37:18.403Z,59.6000
2019-05-11T09:37:27.734Z,59.6000
2019-05-11T09:37:38.062Z,59.5000
2019-05-11T09:37:48.443Z,59.5000
2019-05-11T09:37:58.755Z,59.5000
2019-05-11T09:38:08.027Z,59.6000
2019-05-11T09:38:18.490Z,59.5000
2019-05-11T09:38:27.738Z,59.5000
2019-05-11T09:38:38.282Z,59.5000
2019-05-11T09:38:48.958Z,59.5000
2019-05-11T09:38:58.232Z,59.5000
2019-05-11T09:39:08.410Z,59.5000
2019-05-11T09:39:17.741Z,59.5000
2019-05-11T09:39:28.080Z,59.4000
2019-05-11T09:39:38.333Z,59.4000
2019-05-11T09:39:47.878Z,59.4000
2019-05-11T09:39:58.360Z,59.4000
2019-05-11T09:40:07.840Z,59.4000
2019-05-11T09:40:18.281Z,59.4000
2019-05-11T09:40:28.383Z,59.4000
2019-05-11T09:40:38.613Z,59.4000
2019-05-11T09:40:47.972Z,59.3000
2019-05-11T09:40:58.516Z,59.3000
2019-05-11T09:41:08.979Z,59.3000
2019-05-11T09:41:20.319Z,59.3000
2019-05-11T09:41:29.043Z,59.3000
2019-05-11T09:41:38.270Z,59.3000
2019-05-11T09:41:48.835Z,59.3000
2019-05-11T09:41:58.430Z,59.3000
2019-05-11T09:42:07.712Z,59.3000
2019-05-11T09:42:17.933Z,59.4000
2019-05-11T09:42:28.487Z,59.3000
2019-05-11T09:42:38.832Z,59.4000
2019-05-11T09:42:48.032Z,59.3000
2019-05-11T09:42:58.494Z,59.3000
2019-05-11T09:43:08.514Z,59.3000
2019-05-11T09:43:17.844Z,59.3000
2019-05-11T09:43:28.348Z,59.3000
2019-05-11T09:43:37.728Z,59.3000
2019-05-11T09:43:48.240Z,59.3000
2019-05-11T09:43:58.731Z,59.3000
2019-05-11T09:44:09.040Z,59.3000
2019-05-11T09:44:18.220Z,59.3000
2019-05-11T09:44:28.872Z,59.3000
2019-05-11T09:44:38.112Z,59.3000
2019-05-11T09:44:48.496Z,59.3000
2019-05-11T09:44:57.791Z,59.3000
2019-05-11T09:45:08.044Z,59.3000
2019-05-11T09:45:18.673Z,59.3000
2019-05-11T09:45:27.863Z,59.3000
2019-05-11T09:45:47.440Z,59.3000
2019-05-11T09:45:51.893Z,59.3000
2019-05-11T09:46:00.624Z,59.3000
2019-05-11T09:46:09.031Z,59.3000
2019-05-11T09:46:18.843Z,59.3000
2019-05-11T09:46:27.965Z,59.3000
2019-05-11T09:46:38.424Z,59.3000
2019-05-11T09:46:47.801Z,59.3000
2019-05-11T09:46:59.953Z,59.3000
2019-05-11T09:47:10.793Z,59.3000
2019-05-11T09:47:19.233Z,59.3000
2019-05-11T09:47:28.046Z,59.3000
2019-05-11T09:47:38.597Z,59.3000
2019-05-11T09:47:47.862Z,59.3000
2019-05-11T09:47:58.196Z,59.3000
2019-05-11T09:48:08.601Z,59.3000
2019-05-11T09:48:17.969Z,59.3000
2019-05-11T09:48:28.415Z,59.3000
2019-05-11T09:48:37.844Z,59.2000
2019-05-11T09:48:48.308Z,59.3000
2019-05-11T09:48:58.992Z,59.3000
2019-05-11T09:49:08.163Z,59.3000
2019-05-11T09:49:18.498Z,59.3000
2019-05-11T09:49:43.430Z,59.2000
2019-05-11T09:49:47.522Z,59.2000
2019-05-11T09:49:58.031Z,59.2000
2019-05-11T09:50:08.548Z,59.2000
2019-05-11T09:50:17.895Z,59.2000
2019-05-11T09:50:28.389Z,59.2000
2019-05-11T09:50:38.785Z,59.2000
2019-05-11T09:50:48.112Z,59.2000
2019-05-11T09:50:58.680Z,59.2000
2019-05-11T09:51:07.836Z,59.2000
2019-05-11T09:51:18.467Z,59.2000
2019-05-11T09:51:28.770Z,59.3000
2019-05-11T09:51:38.005Z,59.2000
2019-05-11T09:51:48.272Z,59.2000
2019-05-11T09:51:58.921Z,59.2000
2019-05-11T09:52:07.901Z,59.2000
2019-05-11T09:52:18.328Z,59.2000
2019-05-11T09:52:27.610Z,59.2000
2019-05-11T09:52:38.260Z,59.2000
2019-05-11T09:52:48.949Z,59.2000
2019-05-11T09:52:58.193Z,59.2000
2019-05-11T09:53:08.551Z,59.2000
2019-05-11T09:53:17.690Z,59.2000
2019-05-11T09:53:28.348Z,59.2000
2019-05-11T09:53:38.842Z,59.1000
2019-05-11T09:53:48.229Z,59.2000
2019-05-11T09:53:58.731Z,59.1000
2019-05-11T09:54:08.006Z,59.1000
2019-05-11T09:54:18.240Z,59.1000
2019-05-11T09:54:28.951Z,59.1000
2019-05-11T09:54:38.393Z,59.1000
2019-05-11T09:54:48.737Z,59.1000
2019-05-11T09:54:57.996Z,59.1000
2019-05-11T09:55:08.556Z,59.1000
2019-05-11T09:55:19.050Z,59.1000
2019-05-11T09:55:28.323Z,59.1000
2019-05-11T09:55:38.880Z,59.1000
2019-05-11T09:55:48.111Z,59.1000
2019-05-11T09:55:58.674Z,59.1000
2019-05-11T09:56:08.091Z,59.1000
2019-05-11T09:56:18.423Z,59.1000
2019-05-11T09:56:28.717Z,59.1000
2019-05-11T09:56:38.217Z,59.1000
2019-05-11T09:56:48.616Z,59.1000
2019-05-11T09:56:57.870Z,59.1000
2019-05-11T09:57:08.322Z,59.1000
2019-05-11T09:57:18.477Z,59.1000
2019-05-11T09:57:27.669Z,59.1000
2019-05-11T09:57:38.217Z,59.1000